AirNav   Phillips 66 Aviation Fuel
 
 1322 users online  

2VA6 Arrowhead Point Airport
Saluda, Virginia, USA

GOING TO SALUDA?


FAA INFORMATION EFFECTIVE 12 SEPTEMBER 2019

Location

FAA Identifier: 2VA6
Lat/Long: 37-37-25.5060N 076-36-03.8340W
37-37.425100N 076-36.063900W
37.6237517,-76.6010650
(estimated)
Elevation: 85 ft. / 26 m (estimated)
Variation: 09W (1985)
From city: 1 mile NW of SALUDA, VA
Time zone: UTC -4 (UTC -5 during Standard Time)
Zip code: 23149

Airport Operations

Airport use: Private use. Permission required prior to landing
Activation date: 07/1972
Control tower: no
ARTCC: WASHINGTON CENTER
FSS: LEESBURG FLIGHT SERVICE STATION
Attendance: UNATNDD
Wind indicator: yes
Segmented circle: no

Airport Communications

WX AWOS-3 at W75 (7 nm E): 118.45 (804-758-8592)
WX AWOS-3 at FYJ (10 nm SW): 132.825 (804-785-2307)
WX AWOS-3 at XSA (20 nm NW): 125.775 (804-445-8724)

Nearby radio navigation aids

VOR radial/distance  VOR name  Freq  Var
HCMr034/11.7HARCUM VORTAC108.8007W
HPWr060/30.2HOPEWELL VORTAC112.0006W
CCVr310/33.2CAPE CHARLES VORTAC112.2010W
RICr087/35.0RICHMOND VOR/DME114.1009W

Airport Services

Airframe service: NONE
Powerplant service: NONE

Runway Information

Runway 8/26

Dimensions: 3200 x 60 ft. / 975 x 18 m
Surface: turf
RUNWAY 8  RUNWAY 26
Traffic pattern: leftleft
Obstructions: 5 ft. trees, 225 ft. from runway85 ft. trees, 375 ft. from runway

Airport Ownership and Management from official FAA records

Ownership: Privately-owned
Owner: JEFFREY ARROWSMITH
780 TOWN BRIDGE ROAD
SALUDA, VA 23149
Phone 807-694-6596

Airport Operational Statistics

Aircraft based on the field: 1
Single engine airplanes: 1
    

Additional Remarks

FOR CD CTC POTOMAC APCH AT 866-640-4124.

Instrument Procedures

There are no published instrument procedures at 2VA6.

Some nearby airports with instrument procedures:

W75 - Hummel Field Airport (7 nm E)
KFYJ - Middle Peninsula Regional Airport (10 nm SW)
W94 - Camp Peary Landing Strip Airport (19 nm S)
KXSA - Tappahannock-Essex County Airport (20 nm NW)
KJGG - Williamsburg-Jamestown Airport (24 nm S)
 
Loc | Ops | Rwys | IFR | FBO | Links
Com | Nav | Svcs | Stats | Notes
Area around 2VA6 (Arrowhead Point Airport)
 
Road maps at: MapQuest Bing Google
 
Aerial photo
WARNING: Photo may not be current or correct
Aerial photo of 2VA6 (Arrowhead Point Airport)
Photo by Steve Beste
Photo taken 27-Sep-2014
looking south.

Do you have a better or more recent aerial photo of Arrowhead Point Airport that you would like to share? If so, please send us your photo.

 
Sectional chart

 
Airport distance calculator
Flying to Arrowhead Point Airport? Find the distance to fly.

From to 2VA6

Sunrise and sunset
Times for 19-Sep-2019
 Local
(UTC-4)
 Zulu
(UTC)
Morning civil twilight06:2610:26
Sunrise06:5310:53
Sunset19:0823:08
Evening civil twilight19:3423:34

Current date and time
Zulu (UTC)  19-Sep-2019 13:51:20
Local (UTC-4)  19-Sep-2019 09:51:20
 
METAR
KW75 
7nm E 
191335Z AUTO 03006G14KT 10SM SCT044 19/10 A3031 RMK AO1 T01860095
KFYJ 
10nm SW 
191335Z AUTO 05008KT 360V070 10SM CLR 19/10 A3032 RMK AO1 T01910101
KXSA 
20nm NW 
191335Z AUTO 04006KT 10SM SCT040 18/11 A3033 RMK AO2 T01840109
TAF
KPHF 
30nm S 
191126Z 1912/2012 04010KT P6SM SCT040 FM191500 05011G18KT P6SM BKN040 FM192000 06009KT P6SM FEW050 FM200000 VRB03KT P6SM SKC
KFAF 
30nm S 
191000Z 1910/2016 05006KT 9999 FEW040 QNH3023INS BECMG 1915/1916 06010G15KT 9999 SCT040 QNH3027INS BECMG 2002/2003 VRB06KT 9999 FEW030 QNH3027INS TX22/1918Z TN15/2009Z
KRIC 
35nm W 
191126Z 1912/2012 02005KT P6SM SKC FM191500 05007KT P6SM FEW050 FM192200 VRB03KT P6SM SKC
KLFI 
35nm S 
190900Z 1909/2015 06015G20KT 9999 SKC QNH3020INS BECMG 1912/1913 04012KT 9999 FEW035 SCT050 QNH3028INS BECMG 2008/2010 33006KT 9999 SCT040 QNH3026INS TX22/1920Z TN18/2002Z
NOTAMs
Click for the latest NOTAMs
NOTAMs are issued by the DoD/FAA and will open in a separate window not controlled by AirNav.

 

 
 

Would you like to see your business listed on this page?

 If your business provides an interesting product or service to pilots, flight crews, aircraft, or users of the Arrowhead Point Airport, you should consider listing it here.  To start the listing process, click on the button below
 
Add a business
 

Other Pages about Arrowhead Point Airport

Update a link
 
Copyright © AirNav, LLC. All rights reserved. Privacy Policy  Contact